createdAt,value
2023-11-15T00:07:55.074Z,9.7
2023-11-15T00:17:55.290Z,9.6
2023-11-15T00:27:55.447Z,9.6
2023-11-15T00:37:55.674Z,9.6
2023-11-15T00:47:55.992Z,9.7
2023-11-15T00:57:56.041Z,9.7
2023-11-15T01:07:56.238Z,9.7
2023-11-15T01:17:56.515Z,9.6
2023-11-15T01:27:56.634Z,9.6
2023-11-15T01:37:56.837Z,9.5
2023-11-15T01:47:57.088Z,9.4
2023-11-15T04:28:02.064Z,9.9
2023-11-15T04:48:00.743Z,10.2
2023-11-15T05:18:01.265Z,10.2
2023-11-15T05:28:01.421Z,10.2
2023-11-15T05:38:01.608Z,10.2
2023-11-15T05:48:01.890Z,10.3
2023-11-15T05:58:02.018Z,10.3
2023-11-15T06:08:03.392Z,10.3
2023-11-15T06:58:03.181Z,10
2023-11-15T07:08:03.385Z,9.9
2023-11-15T07:18:03.607Z,9.9
2023-11-15T07:38:04.012Z,10.1
2023-11-15T08:28:04.969Z,10.5
2023-11-15T08:48:05.401Z,10.6
2023-11-15T08:58:05.563Z,10.6
2023-11-15T11:18:08.378Z,11
2023-11-15T11:28:08.511Z,11.4
2023-11-15T11:38:08.724Z,12
2023-11-15T11:48:08.929Z,11.9
2023-11-15T11:58:09.096Z,12.7
2023-11-15T12:08:09.316Z,12.6
2023-11-15T12:18:09.543Z,12
2023-11-15T12:28:09.706Z,11.9
2023-11-15T12:38:09.915Z,11.6
2023-11-15T12:48:10.148Z,11.7
2023-11-15T12:58:10.317Z,12
2023-11-15T13:08:10.473Z,12
2023-11-15T13:18:10.737Z,11.9
2023-11-15T13:28:10.874Z,12.2
2023-11-15T13:38:11.165Z,12
2023-11-15T13:48:11.343Z,12
2023-11-15T13:58:11.480Z,11.9
2023-11-15T14:08:11.677Z,11.6
2023-11-15T14:18:12.101Z,10.8
2023-11-15T14:28:12.052Z,10.5
2023-11-15T14:48:12.535Z,10
2023-11-15T14:58:12.663Z,10
2023-11-15T15:18:16.204Z,10.2
2023-11-15T15:28:13.241Z,10.1
2023-11-15T15:38:13.454Z,9.9
2023-11-15T15:48:13.738Z,9.6
2023-11-15T15:58:13.883Z,9.5
2023-11-15T16:08:14.041Z,9.6
2023-11-15T16:18:14.289Z,9.5
2023-11-15T16:28:14.501Z,9.3
2023-11-15T16:38:14.627Z,9.2
2023-11-15T16:48:14.902Z,9
2023-11-15T16:58:15.067Z,9
2023-11-15T17:08:15.231Z,9.1
2023-11-15T17:18:15.467Z,9.3
2023-11-15T17:28:15.637Z,9.3
2023-11-15T17:48:16.088Z,9
2023-11-15T17:58:16.233Z,8.9
2023-11-15T18:08:16.407Z,8.8
2023-11-15T18:18:16.699Z,8.7
2023-11-15T18:28:16.865Z,8.7
2023-11-15T18:38:17.019Z,8.6
2023-11-15T18:48:17.283Z,8.6
2023-11-15T18:58:17.458Z,8.6
2023-11-15T19:08:17.662Z,8.6
2023-11-15T19:18:17.863Z,8.6
2023-11-15T19:48:18.502Z,8.5
2023-11-15T19:58:18.594Z,8.5
2023-11-15T20:08:18.879Z,8.5
2023-11-15T20:18:19.053Z,8.4
2023-11-15T20:28:19.208Z,8.5
2023-11-15T20:38:19.431Z,8.6
2023-11-15T20:48:19.844Z,8.6
2023-11-15T20:58:19.809Z,8.7
2023-11-15T21:08:20.044Z,8.7
2023-11-15T21:18:20.191Z,8.7
2023-11-15T21:28:20.410Z,8.6
2023-11-15T21:38:20.636Z,8.5
2023-11-15T21:48:20.856Z,8.4
2023-11-15T21:58:20.973Z,8.4
2023-11-15T22:08:21.177Z,8.4
2023-11-15T22:18:21.456Z,8.4
2023-11-15T22:28:21.579Z,8.4
2023-11-15T22:48:22.084Z,8.5
2023-11-15T22:58:22.201Z,8.4
2023-11-15T23:08:22.382Z,8.4
2023-11-15T23:18:22.623Z,8.4
2023-11-15T23:28:22.815Z,8.4
2023-11-15T23:38:23.012Z,8.4
